createdAt,value
2022-10-20T00:02:00.700Z,90.04
2022-10-20T00:04:17.873Z,88.61
2022-10-20T00:06:39.165Z,90.06
2022-10-20T00:08:56.335Z,89.49
2022-10-20T00:11:13.577Z,89.54
2022-10-20T00:13:30.772Z,87.47
2022-10-20T00:15:49.026Z,89.53
2022-10-20T00:18:06.351Z,88.06
2022-10-20T00:20:23.698Z,88.43
2022-10-20T00:22:41.007Z,88.50
2022-10-20T00:24:59.146Z,87.78
2022-10-20T00:27:19.581Z,88.28
2022-10-20T00:29:36.717Z,89.36
2022-10-20T00:31:56.281Z,89.08
2022-10-20T00:34:14.207Z,88.86
2022-10-20T00:36:32.381Z,88.77
2022-10-20T00:38:49.489Z,88.72
2022-10-20T00:41:07.881Z,89.36
2022-10-20T00:43:25.876Z,89.43
2022-10-20T00:45:47.121Z,88.85
2022-10-20T00:48:05.395Z,89.45
2022-10-20T00:50:22.481Z,89.04
2022-10-20T00:52:39.659Z,87.52
2022-10-20T00:55:01.111Z,87.57
2022-10-20T00:57:18.349Z,88.66
2022-10-20T00:59:36.625Z,89.58
2022-10-20T01:01:53.751Z,88.36
2022-10-20T01:04:11.794Z,87.13
2022-10-20T01:06:29.088Z,87.77
2022-10-20T01:08:46.193Z,87.27
2022-10-20T01:11:04.981Z,87.41
2022-10-20T01:13:22.281Z,87.25
2022-10-20T01:15:39.335Z,87.13
2022-10-20T01:17:57.312Z,88.76
2022-10-20T01:20:14.378Z,87.69
2022-10-20T01:22:31.355Z,88.48
2022-10-20T01:24:48.590Z,88.09
2022-10-20T01:27:06.822Z,88.25
2022-10-20T01:29:25.025Z,87.09
2022-10-20T01:31:43.490Z,87.34
2022-10-20T01:34:00.764Z,87.20
2022-10-20T01:36:18.355Z,87.18
2022-10-20T01:38:36.503Z,86.96
2022-10-20T01:40:53.778Z,87.08
2022-10-20T01:43:10.721Z,86.86
2022-10-20T01:45:27.807Z,87.37
2022-10-20T01:47:44.698Z,87.04
2022-10-20T01:50:01.738Z,88.72
2022-10-20T01:52:19.090Z,88.23
2022-10-20T01:54:36.998Z,89.04
2022-10-20T01:56:53.981Z,88.53
2022-10-20T01:59:12.790Z,88.00
2022-10-20T02:01:29.833Z,87.70
2022-10-20T02:03:47.198Z,87.94
2022-10-20T02:06:04.446Z,87.84
2022-10-20T02:08:21.709Z,88.26
2022-10-20T02:10:38.605Z,88.14
2022-10-20T02:12:58.758Z,87.68
2022-10-20T02:15:15.643Z,88.16
2022-10-20T02:17:32.592Z,86.90
2022-10-20T02:19:50.846Z,87.30
2022-10-20T02:22:09.875Z,87.99
2022-10-20T02:24:27.810Z,88.11
2022-10-20T02:26:45.020Z,88.67
2022-10-20T02:29:02.067Z,88.49
2022-10-20T02:31:20.346Z,87.77
2022-10-20T02:33:38.233Z,86.84
2022-10-20T02:35:56.134Z,87.91
2022-10-20T02:38:13.089Z,86.82
2022-10-20T02:40:30.398Z,87.58
2022-10-20T02:42:48.686Z,86.00
2022-10-20T02:45:06.028Z,87.32
2022-10-20T02:47:23.005Z,86.79
2022-10-20T02:49:40.225Z,85.90
2022-10-20T02:51:58.716Z,86.27
2022-10-20T02:54:17.089Z,86.85
2022-10-20T02:56:34.420Z,88.10
2022-10-20T02:58:53.103Z,86.83
2022-10-20T03:01:11.039Z,87.37
2022-10-20T03:03:27.964Z,88.03
2022-10-20T03:05:46.207Z,85.54
2022-10-20T03:08:05.833Z,87.17
2022-10-20T03:10:24.174Z,86.85
2022-10-20T03:12:41.199Z,86.83
2022-10-20T03:14:58.189Z,86.19
2022-10-20T03:17:15.277Z,87.14
2022-10-20T03:19:32.237Z,86.91
2022-10-20T03:21:49.986Z,86.46
2022-10-20T03:24:07.061Z,85.51
2022-10-20T03:26:24.370Z,87.49
2022-10-20T03:28:42.950Z,86.30
2022-10-20T03:31:00.088Z,87.23
2022-10-20T03:33:18.425Z,86.35
2022-10-20T03:35:35.938Z,86.13
2022-10-20T03:37:52.917Z,86.04
2022-10-20T03:40:10.294Z,86.31
2022-10-20T03:42:28.251Z,85.74
2022-10-20T03:44:46.573Z,86.16
2022-10-20T03:47:07.113Z,86.03
2022-10-20T03:49:24.027Z,86.12
2022-10-20T03:51:41.820Z,86.71
2022-10-20T03:53:59.959Z,85.94
2022-10-20T03:56:20.376Z,85.00
2022-10-20T03:58:37.638Z,85.44
2022-10-20T04:00:55.671Z,85.59
2022-10-20T04:03:12.740Z,85.76
2022-10-20T04:05:29.981Z,85.49
2022-10-20T04:07:48.264Z,86.50
2022-10-20T04:10:07.926Z,85.80
2022-10-20T04:12:25.951Z,85.42
2022-10-20T04:14:43.259Z,84.30
2022-10-20T04:17:01.317Z,84.71
2022-10-20T04:19:18.665Z,84.56
2022-10-20T04:21:36.351Z,85.87
2022-10-20T04:23:53.276Z,85.48
2022-10-20T04:26:10.673Z,86.53
2022-10-20T04:28:28.516Z,85.02
2022-10-20T04:30:45.568Z,85.70
2022-10-20T04:33:02.587Z,84.88
2022-10-20T04:35:19.660Z,85.35
2022-10-20T04:37:37.461Z,84.52
2022-10-20T04:39:55.579Z,84.78
2022-10-20T04:42:12.590Z,85.03
2022-10-20T04:44:29.643Z,84.48
2022-10-20T04:46:46.902Z,84.79
2022-10-20T04:49:04.802Z,84.42
2022-10-20T04:51:21.872Z,84.68
2022-10-20T04:53:40.134Z,85.21
2022-10-20T04:55:57.416Z,85.22
2022-10-20T04:58:14.646Z,84.77
2022-10-20T05:00:31.987Z,85.52
2022-10-20T05:02:48.877Z,85.59
2022-10-20T05:05:05.861Z,85.82
2022-10-20T05:07:23.094Z,84.91
2022-10-20T05:09:41.321Z,85.23
2022-10-20T05:11:58.408Z,85.49
2022-10-20T05:14:15.413Z,85.10
2022-10-20T05:16:32.427Z,85.18
2022-10-20T05:18:49.468Z,85.40
2022-10-20T05:21:09.237Z,85.72
2022-10-20T05:23:26.638Z,84.87
2022-10-20T05:25:44.880Z,84.95
2022-10-20T05:28:02.333Z,84.76
2022-10-20T05:30:20.612Z,84.94
2022-10-20T05:32:38.107Z,85.35
2022-10-20T05:34:55.261Z,85.73
2022-10-20T05:37:12.313Z,85.67
2022-10-20T05:39:29.239Z,85.22
2022-10-20T05:41:46.533Z,84.99
2022-10-20T05:44:03.821Z,84.79
2022-10-20T05:46:21.114Z,84.43
2022-10-20T05:48:42.202Z,84.79
2022-10-20T05:51:01.486Z,84.32
2022-10-20T05:53:19.779Z,84.69
2022-10-20T05:55:36.716Z,84.94
2022-10-20T05:57:57.540Z,84.19
2022-10-20T06:00:14.599Z,84.79
2022-10-20T06:02:31.829Z,84.97
2022-10-20T06:04:49.231Z,84.99
2022-10-20T06:07:06.174Z,85.43
2022-10-20T06:09:23.485Z,84.85
2022-10-20T06:11:41.555Z,85.30
2022-10-20T06:13:58.569Z,85.25
2022-10-20T06:16:16.805Z,85.52
2022-10-20T06:18:33.825Z,85.15
2022-10-20T06:20:50.712Z,84.04
2022-10-20T06:23:08.020Z,84.44
2022-10-20T06:25:25.047Z,84.48
2022-10-20T06:27:42.325Z,84.72
2022-10-20T06:29:59.642Z,84.54
2022-10-20T06:32:16.920Z,84.70
2022-10-20T06:34:33.920Z,84.27
2022-10-20T06:36:50.956Z,84.43
2022-10-20T06:39:09.497Z,84.91
2022-10-20T06:41:26.491Z,84.45
2022-10-20T06:43:44.866Z,84.71
2022-10-20T06:46:02.212Z,84.56
2022-10-20T06:48:19.335Z,85.19
2022-10-20T06:50:36.397Z,85.10
2022-10-20T06:52:53.420Z,84.81
2022-10-20T06:55:10.930Z,85.06
2022-10-20T06:57:28.961Z,84.75
2022-10-20T06:59:46.351Z,84.06
2022-10-20T07:02:04.793Z,84.06
2022-10-20T07:04:22.382Z,84.08
2022-10-20T07:06:39.562Z,84.11
2022-10-20T07:08:56.766Z,83.74
2022-10-20T07:11:13.747Z,83.70
2022-10-20T07:13:31.965Z,84.03
2022-10-20T07:15:49.214Z,84.12
2022-10-20T07:18:07.467Z,83.91
2022-10-20T07:20:24.797Z,83.71
2022-10-20T07:22:43.242Z,83.46
2022-10-20T07:25:00.177Z,82.98
2022-10-20T07:27:17.081Z,83.03
2022-10-20T07:31:50.820Z,83.78
2022-10-20T07:34:23.910Z,83.49
2022-10-20T07:36:42.015Z,84.14
2022-10-20T07:38:58.951Z,84.27
2022-10-20T07:41:16.658Z,83.92
2022-10-20T07:43:33.619Z,84.31
2022-10-20T07:45:50.685Z,83.04
2022-10-20T07:48:07.911Z,83.22
2022-10-20T07:50:25.642Z,83.23
2022-10-20T07:52:42.930Z,82.79
2022-10-20T07:55:12.285Z,83.26
2022-10-20T07:57:38.051Z,83.30
2022-10-20T07:59:55.369Z,82.46
2022-10-20T08:02:12.603Z,82.27
2022-10-20T08:04:29.852Z,82.87
2022-10-20T08:06:46.891Z,81.58
2022-10-20T08:09:05.161Z,81.96
2022-10-20T08:13:56.031Z,81.61
2022-10-20T08:16:17.679Z,82.33
2022-10-20T08:18:38.362Z,82.71
2022-10-20T08:20:55.629Z,82.30
2022-10-20T08:23:12.690Z,81.89
2022-10-20T08:25:29.704Z,82.36
2022-10-20T08:27:46.745Z,81.86
2022-10-20T08:30:22.974Z,81.67
2022-10-20T08:32:41.330Z,81.47
2022-10-20T08:34:58.290Z,81.83
2022-10-20T08:37:15.253Z,81.85
2022-10-20T08:39:32.517Z,81.69
2022-10-20T08:44:26.934Z,82.50
2022-10-20T08:46:43.925Z,82.58
2022-10-20T08:49:02.013Z,82.21
2022-10-20T08:51:18.976Z,82.26
2022-10-20T08:53:36.182Z,80.51
2022-10-20T08:55:53.446Z,81.80
2022-10-20T08:58:10.465Z,81.44
2022-10-20T09:00:27.791Z,80.83
2022-10-20T09:02:44.929Z,79.95
2022-10-20T09:05:04.577Z,80.37
2022-10-20T09:07:21.522Z,80.30
2022-10-20T09:09:38.420Z,80.44
2022-10-20T09:11:55.378Z,79.20
2022-10-20T09:14:13.335Z,81.33
2022-10-20T09:16:40.906Z,80.74
2022-10-20T09:18:59.448Z,81.18
2022-10-20T09:21:16.447Z,78.99
2022-10-20T09:23:42.614Z,80.42
2022-10-20T09:26:00.124Z,81.52
2022-10-20T09:28:17.161Z,81.68
2022-10-20T09:30:34.425Z,82.19
2022-10-20T09:32:51.490Z,81.13
2022-10-20T09:35:08.710Z,81.36
2022-10-20T09:37:26.998Z,82.06
2022-10-20T09:39:43.986Z,82.51
2022-10-20T09:42:04.212Z,82.67
2022-10-20T09:44:21.135Z,81.11
2022-10-20T09:46:38.440Z,81.45
2022-10-20T09:48:55.699Z,82.65
2022-10-20T09:53:31.912Z,81.22
2022-10-20T09:55:48.919Z,81.11
2022-10-20T09:58:06.197Z,82.43
2022-10-20T10:00:36.338Z,81.01
2022-10-20T10:02:53.966Z,80.25
2022-10-20T10:05:11.191Z,81.74
2022-10-20T10:07:29.613Z,81.30
2022-10-20T10:09:46.879Z,81.93
2022-10-20T10:12:03.813Z,81.88
2022-10-20T10:14:20.778Z,80.77
2022-10-20T10:16:38.000Z,81.12
2022-10-20T10:18:54.965Z,82.03
2022-10-20T10:21:11.952Z,81.00
2022-10-20T10:23:30.114Z,81.54
2022-10-20T10:25:47.008Z,81.38
2022-10-20T10:28:03.993Z,81.89
2022-10-20T10:30:20.952Z,82.00
2022-10-20T10:32:38.358Z,79.87
2022-10-20T10:34:55.982Z,79.85
2022-10-20T10:37:13.361Z,80.06
2022-10-20T10:39:30.896Z,81.93
2022-10-20T10:41:48.012Z,81.31
2022-10-20T10:44:05.322Z,81.33
2022-10-20T10:46:22.665Z,80.43
2022-10-20T10:48:43.307Z,81.36
2022-10-20T10:51:00.717Z,82.39
2022-10-20T10:53:18.956Z,81.36
2022-10-20T10:55:48.160Z,81.04
2022-10-20T10:58:06.006Z,82.82
2022-10-20T11:00:22.911Z,81.02
2022-10-20T11:02:40.089Z,83.53
2022-10-20T11:04:57.286Z,81.21
2022-10-20T11:07:15.296Z,81.40
2022-10-20T11:09:32.332Z,82.53
2022-10-20T11:11:52.604Z,82.09
2022-10-20T11:14:09.883Z,82.51
2022-10-20T11:16:28.153Z,81.46
2022-10-20T11:18:45.214Z,83.01
2022-10-20T11:21:02.220Z,84.05
2022-10-20T11:23:19.517Z,81.93
2022-10-20T11:25:36.566Z,83.85
2022-10-20T11:27:53.904Z,83.44
2022-10-20T11:30:11.974Z,81.65
2022-10-20T11:32:29.310Z,81.91
2022-10-20T11:34:46.588Z,82.86
2022-10-20T11:37:04.603Z,83.35
2022-10-20T11:39:21.821Z,83.62
2022-10-20T11:41:38.905Z,83.78
2022-10-20T11:43:56.179Z,83.50
2022-10-20T11:46:13.216Z,84.31
2022-10-20T11:48:32.072Z,81.87
2022-10-20T11:50:49.042Z,82.15
2022-10-20T11:53:06.329Z,81.79
2022-10-20T11:55:25.993Z,83.16
2022-10-20T11:57:43.011Z,81.48
2022-10-20T11:59:59.885Z,82.04
2022-10-20T12:02:18.240Z,81.47
2022-10-20T12:04:35.239Z,82.60
2022-10-20T12:06:52.216Z,81.60
2022-10-20T12:09:09.417Z,82.19
2022-10-20T12:11:26.691Z,82.29
2022-10-20T12:13:43.978Z,82.34
2022-10-20T12:16:02.227Z,82.15
2022-10-20T12:18:19.262Z,81.77
2022-10-20T12:20:37.498Z,83.36
2022-10-20T12:22:54.449Z,83.56
2022-10-20T12:25:12.756Z,82.99
2022-10-20T12:27:30.027Z,82.17
2022-10-20T12:29:47.230Z,81.75
2022-10-20T12:32:04.240Z,83.20
2022-10-20T12:34:21.430Z,82.80
2022-10-20T12:36:39.697Z,82.48
2022-10-20T12:38:56.954Z,82.26
2022-10-20T12:41:13.948Z,83.54
2022-10-20T12:43:31.980Z,82.64
2022-10-20T12:45:48.969Z,83.16
2022-10-20T12:48:06.913Z,84.21
2022-10-20T12:50:23.912Z,84.99
2022-10-20T12:52:41.151Z,83.34
2022-10-20T12:54:59.165Z,83.20
2022-10-20T12:57:19.003Z,83.21
2022-10-20T12:59:36.094Z,83.17
2022-10-20T13:01:53.330Z,84.26
2022-10-20T13:04:10.282Z,83.27
2022-10-20T13:06:28.278Z,83.65
2022-10-20T13:08:45.254Z,83.31
2022-10-20T13:11:03.294Z,83.58
2022-10-20T13:13:21.342Z,83.78
2022-10-20T13:15:38.399Z,83.65
2022-10-20T13:17:55.351Z,83.36
2022-10-20T13:20:12.565Z,83.87
2022-10-20T13:22:29.816Z,83.50
2022-10-20T13:24:51.672Z,83.52
2022-10-20T13:27:09.745Z,83.82
2022-10-20T13:29:27.930Z,85.15
2022-10-20T13:31:45.212Z,84.96
2022-10-20T13:34:05.395Z,84.52
2022-10-20T13:36:23.151Z,84.42
2022-10-20T13:38:41.136Z,84.86
2022-10-20T13:40:58.249Z,84.81
2022-10-20T13:43:15.509Z,84.72
2022-10-20T13:45:32.500Z,85.19
2022-10-20T13:47:49.407Z,86.11
2022-10-20T13:50:07.401Z,87.43
2022-10-20T13:52:24.503Z,86.47
2022-10-20T13:54:41.744Z,88.39
2022-10-20T13:56:59.003Z,88.29
2022-10-20T13:59:17.022Z,88.40
2022-10-20T14:01:34.288Z,89.16
2022-10-20T14:03:52.356Z,89.87
2022-10-20T14:06:09.334Z,89.05
2022-10-20T14:08:26.248Z,89.00
2022-10-20T14:10:43.568Z,91.12
2022-10-20T14:13:01.536Z,90.36
2022-10-20T14:15:18.578Z,91.75
2022-10-20T14:17:40.528Z,91.19
2022-10-20T14:19:57.965Z,91.87
2022-10-20T14:22:14.830Z,91.89
2022-10-20T14:24:32.067Z,91.51
2022-10-20T14:26:49.045Z,91.46
2022-10-20T14:29:06.103Z,92.36
2022-10-20T14:31:23.040Z,91.38
2022-10-20T14:33:40.011Z,91.28
2022-10-20T14:35:57.268Z,92.26
2022-10-20T14:38:14.279Z,90.35
2022-10-20T14:40:32.289Z,91.38
2022-10-20T14:42:50.729Z,90.41
2022-10-20T14:45:07.594Z,90.51
2022-10-20T14:47:25.598Z,92.16
2022-10-20T14:49:42.904Z,90.28
2022-10-20T14:51:59.978Z,92.04
2022-10-20T14:54:17.206Z,90.21
2022-10-20T14:56:34.476Z,92.09
2022-10-20T14:58:51.750Z,91.25
2022-10-20T15:01:08.743Z,93.00
2022-10-20T15:03:26.956Z,91.08
2022-10-20T15:05:45.029Z,91.35
2022-10-20T15:08:06.186Z,93.30
2022-10-20T15:10:23.921Z,91.75
2022-10-20T15:12:41.051Z,91.95
2022-10-20T15:14:58.336Z,91.59
2022-10-20T15:17:15.564Z,91.70
2022-10-20T15:19:32.930Z,92.93
2022-10-20T15:21:50.222Z,92.75
2022-10-20T15:24:08.233Z,92.94
2022-10-20T15:26:25.261Z,92.26
2022-10-20T15:28:42.298Z,92.83
2022-10-20T15:31:00.517Z,94.06
2022-10-20T15:33:17.751Z,93.75
2022-10-20T15:35:34.740Z,92.45
2022-10-20T15:37:51.986Z,93.19
2022-10-20T15:40:09.359Z,94.09
2022-10-20T15:42:26.583Z,94.18
2022-10-20T15:44:43.539Z,94.26
2022-10-20T15:47:00.793Z,95.41
2022-10-20T15:49:19.068Z,95.21
2022-10-20T15:51:35.969Z,94.67
2022-10-20T15:53:52.882Z,95.59
2022-10-20T15:56:10.135Z,94.26
2022-10-20T15:58:27.182Z,93.94
2022-10-20T16:00:44.170Z,95.00
2022-10-20T16:03:02.251Z,95.68
2022-10-20T16:05:20.177Z,95.73
2022-10-20T16:07:38.552Z,94.23
2022-10-20T16:09:57.782Z,95.12
2022-10-20T16:12:15.008Z,96.39
2022-10-20T16:14:32.021Z,95.93
2022-10-20T16:16:49.067Z,96.09
2022-10-20T16:19:06.395Z,95.26
2022-10-20T16:21:23.434Z,95.19
2022-10-20T16:23:42.328Z,94.58
2022-10-20T16:26:02.107Z,93.56
2022-10-20T16:28:19.302Z,94.19
2022-10-20T16:30:36.330Z,95.13
2022-10-20T16:32:53.557Z,94.01
2022-10-20T16:35:10.564Z,95.95
2022-10-20T16:37:27.541Z,94.18
2022-10-20T16:39:45.773Z,95.81
2022-10-20T16:42:02.801Z,95.75
2022-10-20T16:44:20.765Z,95.83
2022-10-20T16:46:38.965Z,94.57
2022-10-20T16:48:56.307Z,95.71
2022-10-20T16:51:13.556Z,94.74
2022-10-20T16:53:30.477Z,96.41
2022-10-20T16:55:47.527Z,96.79
2022-10-20T16:58:04.531Z,96.36
2022-10-20T17:00:21.539Z,96.41
2022-10-20T17:02:38.613Z,96.58
2022-10-20T17:04:55.641Z,95.56
2022-10-20T17:07:12.778Z,95.85
2022-10-20T17:09:31.068Z,94.83
2022-10-20T17:11:48.051Z,94.46
2022-10-20T17:14:06.235Z,94.57
2022-10-20T17:16:26.153Z,95.26
2022-10-20T17:18:45.728Z,95.75
2022-10-20T17:21:02.625Z,95.69
2022-10-20T17:23:19.914Z,95.65
2022-10-20T17:25:37.178Z,94.38
2022-10-20T17:27:55.517Z,96.21
2022-10-20T17:30:12.412Z,95.26
2022-10-20T17:32:30.351Z,96.71
2022-10-20T17:34:47.361Z,95.40
2022-10-20T17:37:04.334Z,96.49
2022-10-20T17:39:21.373Z,96.41
2022-10-20T17:41:39.381Z,96.45
2022-10-20T17:43:56.399Z,96.36
2022-10-20T17:46:14.108Z,95.02
2022-10-20T17:48:31.148Z,96.87
2022-10-20T17:50:49.182Z,95.38
2022-10-20T17:53:06.175Z,96.74
2022-10-20T17:55:24.352Z,96.41
2022-10-20T17:57:41.392Z,95.52
2022-10-20T18:00:01.600Z,95.00
2022-10-20T18:02:23.195Z,95.36
2022-10-20T18:04:40.244Z,96.58
2022-10-20T18:06:57.558Z,95.71
2022-10-20T18:09:14.889Z,96.62
2022-10-20T18:11:31.952Z,97.23
2022-10-20T18:13:51.357Z,96.94
2022-10-20T18:16:08.655Z,96.28
2022-10-20T18:18:25.950Z,96.79
2022-10-20T18:20:42.973Z,96.33
2022-10-20T18:23:00.192Z,97.30
2022-10-20T18:25:17.148Z,95.57
2022-10-20T18:27:37.143Z,95.61
2022-10-20T18:29:54.156Z,97.42
2022-10-20T18:32:11.173Z,96.39
2022-10-20T18:34:28.421Z,95.78
2022-10-20T18:36:47.647Z,96.32
2022-10-20T18:39:04.703Z,96.16
2022-10-20T18:41:21.781Z,96.86
2022-10-20T18:43:39.052Z,97.24
2022-10-20T18:45:55.976Z,96.85
2022-10-20T18:48:14.238Z,95.33
2022-10-20T18:50:31.499Z,95.62
2022-10-20T18:52:48.808Z,96.23
2022-10-20T18:55:06.766Z,96.09
2022-10-20T18:57:23.808Z,95.97
2022-10-20T18:59:41.112Z,96.77
2022-10-20T19:01:58.135Z,96.77
2022-10-20T19:04:15.169Z,96.32
2022-10-20T19:06:32.203Z,96.19
2022-10-20T19:08:49.474Z,98.17
2022-10-20T19:11:06.507Z,96.27
2022-10-20T19:13:23.540Z,98.31
2022-10-20T19:15:41.553Z,97.61
2022-10-20T19:18:01.566Z,96.49
2022-10-20T19:20:18.926Z,97.95
2022-10-20T19:22:36.935Z,96.04
2022-10-20T19:24:53.914Z,98.05
2022-10-20T19:27:27.378Z,97.80
2022-10-20T19:29:44.617Z,96.70
2022-10-20T19:32:01.662Z,96.85
2022-10-20T19:34:18.682Z,97.94
2022-10-20T19:36:36.033Z,97.17
2022-10-20T19:38:53.038Z,97.73
2022-10-20T19:41:11.254Z,96.22
2022-10-20T19:43:28.318Z,96.54
2022-10-20T19:45:47.816Z,97.21
2022-10-20T19:48:06.690Z,97.54
2022-10-20T19:50:23.659Z,96.45
2022-10-20T19:52:40.692Z,96.27
2022-10-20T19:54:57.945Z,97.30
2022-10-20T19:57:15.250Z,96.75
2022-10-20T19:59:32.229Z,96.59
2022-10-20T20:01:50.434Z,97.75
2022-10-20T20:04:07.448Z,97.96
2022-10-20T20:06:24.481Z,97.24
2022-10-20T20:08:41.436Z,97.54
2022-10-20T20:10:58.477Z,97.57
2022-10-20T20:13:16.794Z,96.45
2022-10-20T20:15:33.829Z,97.75
2022-10-20T20:17:50.691Z,97.70
2022-10-20T20:20:07.726Z,96.89
2022-10-20T20:22:24.647Z,98.47
2022-10-20T20:24:41.669Z,97.60
2022-10-20T20:26:58.744Z,98.96
2022-10-20T20:29:15.685Z,97.16
2022-10-20T20:31:32.980Z,98.46
2022-10-20T20:33:50.912Z,98.39
2022-10-20T20:36:09.200Z,98.55
2022-10-20T20:38:27.374Z,98.35
2022-10-20T20:40:44.600Z,98.26
2022-10-20T20:43:01.914Z,96.50
2022-10-20T20:45:18.914Z,97.91
2022-10-20T20:47:36.174Z,98.10
2022-10-20T20:49:55.643Z,97.09
2022-10-20T20:52:13.986Z,97.42
2022-10-20T20:54:33.029Z,98.01
2022-10-20T20:56:50.226Z,96.87
2022-10-20T20:59:09.568Z,96.61
2022-10-20T21:01:26.844Z,98.33
2022-10-20T21:03:43.878Z,96.97
2022-10-20T21:06:01.113Z,98.52
2022-10-20T21:08:18.152Z,96.43
2022-10-20T21:10:35.349Z,98.54
2022-10-20T21:12:52.954Z,96.43
2022-10-20T21:15:10.905Z,96.06
2022-10-20T21:17:28.199Z,97.94
2022-10-20T21:19:45.434Z,98.20
2022-10-20T21:22:02.702Z,98.26
2022-10-20T21:24:19.823Z,98.00
2022-10-20T21:26:37.095Z,97.14
2022-10-20T21:28:54.052Z,97.98
2022-10-20T21:31:10.921Z,98.71
2022-10-20T21:33:27.913Z,98.59
2022-10-20T21:35:45.932Z,97.38
2022-10-20T21:38:02.894Z,98.10
2022-10-20T21:40:19.794Z,97.31
2022-10-20T21:42:37.187Z,98.16
2022-10-20T21:44:56.182Z,97.76
2022-10-20T21:47:13.625Z,97.96
2022-10-20T21:49:31.894Z,97.99
2022-10-20T21:51:48.812Z,96.64
2022-10-20T21:54:14.251Z,97.38
2022-10-20T21:56:31.595Z,97.67
2022-10-20T21:58:48.907Z,97.86
2022-10-20T22:01:06.047Z,97.19
2022-10-20T22:03:23.242Z,98.30
2022-10-20T22:05:40.620Z,98.81
2022-10-20T22:07:58.630Z,97.51
2022-10-20T22:10:15.773Z,96.80
2022-10-20T22:12:33.035Z,97.51
2022-10-20T22:14:50.361Z,97.40
2022-10-20T22:17:07.360Z,98.04
2022-10-20T22:19:26.919Z,98.66
2022-10-20T22:21:44.011Z,98.58
2022-10-20T22:24:01.330Z,96.86
2022-10-20T22:26:19.331Z,97.04
2022-10-20T22:28:36.307Z,98.38
2022-10-20T22:30:53.379Z,98.09
2022-10-20T22:33:10.404Z,99.13
2022-10-20T22:35:27.947Z,99.06
2022-10-20T22:37:46.234Z,99.17
2022-10-20T22:40:03.243Z,99.39
2022-10-20T22:42:22.581Z,99.95
2022-10-20T22:44:42.077Z,97.87
2022-10-20T22:47:00.053Z,98.37
2022-10-20T22:49:17.313Z,99.72
2022-10-20T22:51:34.230Z,98.93
2022-10-20T22:53:51.138Z,99.04
2022-10-20T22:56:09.370Z,100.00
2022-10-20T22:58:26.655Z,100.00
2022-10-20T23:00:43.712Z,100.00
2022-10-20T23:03:00.804Z,100.00
2022-10-20T23:05:17.835Z,100.00
2022-10-20T23:07:34.985Z,100.00
2022-10-20T23:09:52.651Z,99.91
2022-10-20T23:12:09.691Z,99.02
2022-10-20T23:14:27.664Z,99.86
2022-10-20T23:16:44.660Z,99.49
2022-10-20T23:19:03.400Z,99.26
2022-10-20T23:21:20.612Z,98.65
2022-10-20T23:23:37.655Z,98.92
2022-10-20T23:25:54.588Z,98.37
2022-10-20T23:28:11.768Z,96.55
2022-10-20T23:30:28.768Z,97.00
2022-10-20T23:32:45.799Z,99.28
2022-10-20T23:35:02.702Z,97.79
2022-10-20T23:37:19.589Z,97.25
2022-10-20T23:39:36.608Z,97.52
2022-10-20T23:41:53.857Z,99.44
2022-10-20T23:44:10.881Z,97.11
2022-10-20T23:46:27.860Z,97.34
2022-10-20T23:48:45.159Z,99.17
2022-10-20T23:51:02.059Z,98.29
2022-10-20T23:53:19.038Z,97.51
2022-10-20T23:55:37.287Z,98.26
2022-10-20T23:57:54.528Z,98.70
